createdAt,value
2023-03-22T00:00:04.349Z,1007.88
2023-03-22T00:01:04.342Z,1007.88
2023-03-22T00:02:04.344Z,1007.84
2023-03-22T00:03:04.427Z,1007.85
2023-03-22T00:04:04.395Z,1007.87
2023-03-22T00:05:04.407Z,1007.88
2023-03-22T00:06:04.331Z,1007.87
2023-03-22T00:07:04.377Z,1007.84
2023-03-22T00:08:04.364Z,1007.80
2023-03-22T00:09:04.327Z,1007.76
2023-03-22T00:10:04.324Z,1007.78
2023-03-22T00:11:04.339Z,1007.73
2023-03-22T00:12:04.356Z,1007.74
2023-03-22T00:13:04.324Z,1007.74
2023-03-22T00:14:04.320Z,1007.69
2023-03-22T00:15:04.321Z,1007.74
2023-03-22T00:16:04.397Z,1007.76
2023-03-22T00:17:04.317Z,1007.78
2023-03-22T00:18:04.307Z,1007.78
2023-03-22T00:19:04.373Z,1007.76
2023-03-22T00:20:04.306Z,1007.77
2023-03-22T00:21:04.308Z,1007.76
2023-03-22T00:22:04.304Z,1007.74
2023-03-22T00:23:04.304Z,1007.74
2023-03-22T00:24:04.300Z,1007.74
2023-03-22T00:25:04.301Z,1007.70
2023-03-22T00:26:04.303Z,1007.67
2023-03-22T00:27:04.346Z,1007.66
2023-03-22T00:28:04.330Z,1007.65
2023-03-22T00:29:04.292Z,1007.68
2023-03-22T00:30:04.297Z,1007.71
2023-03-22T00:31:04.349Z,1007.70
2023-03-22T00:32:04.304Z,1007.71
2023-03-22T00:33:04.293Z,1007.66
2023-03-22T00:34:04.288Z,1007.65
2023-03-22T00:35:04.287Z,1007.69
2023-03-22T00:36:04.286Z,1007.64
2023-03-22T00:37:04.295Z,1007.67
2023-03-22T00:38:04.281Z,1007.64
2023-03-22T00:39:04.278Z,1007.58
2023-03-22T00:40:04.274Z,1007.58
2023-03-22T00:41:04.281Z,1007.57
2023-03-22T00:42:04.276Z,1007.59
2023-03-22T00:43:04.306Z,1007.55
2023-03-22T00:44:04.304Z,1007.63
2023-03-22T00:45:04.279Z,1007.60
2023-03-22T00:46:04.334Z,1007.60
2023-03-22T00:47:04.274Z,1007.59
2023-03-22T00:48:04.317Z,1007.59
2023-03-22T00:49:04.266Z,1007.62
2023-03-22T00:50:04.264Z,1007.57
2023-03-22T00:51:04.274Z,1007.58
2023-03-22T00:52:04.263Z,1007.57
2023-03-22T00:53:04.262Z,1007.58
2023-03-22T00:54:04.267Z,1007.55
2023-03-22T00:55:04.264Z,1007.52
2023-03-22T00:56:04.260Z,1007.54
2023-03-22T00:57:04.269Z,1007.56
2023-03-22T00:58:04.248Z,1007.53
2023-03-22T00:59:04.255Z,1007.53
2023-03-22T01:00:04.273Z,1007.51
2023-03-22T01:01:04.303Z,1007.52
2023-03-22T01:02:04.242Z,1007.45
2023-03-22T01:03:04.244Z,1007.46
2023-03-22T01:04:04.241Z,1007.49
2023-03-22T01:05:04.240Z,1007.49
2023-03-22T01:06:04.238Z,1007.52
2023-03-22T01:07:04.239Z,1007.50
2023-03-22T01:08:04.235Z,1007.52
2023-03-22T01:09:04.247Z,1007.56
2023-03-22T01:10:04.227Z,1007.54
2023-03-22T01:11:04.235Z,1007.53
2023-03-22T01:12:04.227Z,1007.53
2023-03-22T01:13:04.225Z,1007.60
2023-03-22T01:14:04.219Z,1007.60
2023-03-22T01:15:04.225Z,1007.61
2023-03-22T01:16:04.296Z,1007.59
2023-03-22T01:17:04.219Z,1007.58
2023-03-22T01:18:04.213Z,1007.56
2023-03-22T01:19:04.226Z,1007.58
2023-03-22T01:20:04.214Z,1007.57
2023-03-22T01:21:04.223Z,1007.50
2023-03-22T01:22:04.213Z,1007.52
2023-03-22T01:23:04.213Z,1007.46
2023-03-22T01:24:04.220Z,1007.47
2023-03-22T01:25:04.210Z,1007.47
2023-03-22T01:26:04.201Z,1007.46
2023-03-22T01:27:04.203Z,1007.43
2023-03-22T01:28:04.198Z,1007.42
2023-03-22T01:29:04.206Z,1007.42
2023-03-22T01:30:04.195Z,1007.44
2023-03-22T01:31:04.305Z,1007.38
2023-03-22T01:32:04.230Z,1007.35
2023-03-22T01:33:04.200Z,1007.33
2023-03-22T01:34:04.201Z,1007.39
2023-03-22T01:35:04.188Z,1007.35
2023-03-22T01:36:04.216Z,1007.41
2023-03-22T01:37:04.192Z,1007.39
2023-03-22T01:38:04.185Z,1007.39
2023-03-22T01:39:04.179Z,1007.34
2023-03-22T01:40:04.189Z,1007.35
2023-03-22T01:41:04.179Z,1007.33
2023-03-22T01:42:04.180Z,1007.29
2023-03-22T01:43:04.180Z,1007.28
2023-03-22T01:44:04.176Z,1007.29
2023-03-22T01:45:04.178Z,1007.26
2023-03-22T01:46:04.228Z,1007.25
2023-03-22T01:47:04.177Z,1007.24
2023-03-22T01:48:04.221Z,1007.25
2023-03-22T01:49:04.264Z,1007.16
2023-03-22T01:50:04.168Z,1007.23
2023-03-22T01:51:04.175Z,1007.21
2023-03-22T01:52:04.170Z,1007.16
2023-03-22T01:53:04.162Z,1007.14
2023-03-22T01:54:04.161Z,1007.11
2023-03-22T01:55:04.164Z,1007.06
2023-03-22T01:56:04.161Z,1007.07
2023-03-22T01:57:04.165Z,1007.08
2023-03-22T01:58:04.154Z,1007.06
2023-03-22T01:59:04.162Z,1007.11
2023-03-22T02:00:04.159Z,1007.05
2023-03-22T02:01:04.205Z,1007.05
2023-03-22T02:02:04.146Z,1007.07
2023-03-22T02:03:04.174Z,1007.05
2023-03-22T02:04:04.178Z,1007.05
2023-03-22T02:05:04.199Z,1006.99
2023-03-22T02:06:04.142Z,1006.93
2023-03-22T02:07:04.142Z,1006.90
2023-03-22T02:08:04.137Z,1006.91
2023-03-22T02:09:04.140Z,1006.90
2023-03-22T02:10:04.147Z,1006.93
2023-03-22T02:11:04.145Z,1006.89
2023-03-22T02:12:04.131Z,1006.90
2023-03-22T02:13:04.161Z,1006.90
2023-03-22T02:14:04.128Z,1006.95
2023-03-22T02:15:04.130Z,1006.90
2023-03-22T02:16:04.277Z,1006.89
2023-03-22T02:17:04.136Z,1006.86
2023-03-22T02:18:04.122Z,1006.86
2023-03-22T02:19:04.173Z,1006.90
2023-03-22T02:20:04.132Z,1006.87
2023-03-22T02:21:04.120Z,1006.87
2023-03-22T02:22:04.117Z,1006.85
2023-03-22T02:23:04.115Z,1006.84
2023-03-22T02:24:04.115Z,1006.91
2023-03-22T02:25:04.117Z,1006.88
2023-03-22T02:26:04.109Z,1006.87
2023-03-22T02:27:04.113Z,1006.87
2023-03-22T02:28:04.105Z,1006.86
2023-03-22T02:29:04.113Z,1006.89
2023-03-22T02:30:04.101Z,1006.86
2023-03-22T02:31:04.200Z,1006.92
2023-03-22T02:32:04.109Z,1006.91
2023-03-22T02:33:04.097Z,1006.90
2023-03-22T02:34:04.094Z,1006.91
2023-03-22T02:35:04.113Z,1006.93
2023-03-22T02:36:04.130Z,1006.89
2023-03-22T02:37:04.104Z,1006.90
2023-03-22T02:38:04.090Z,1006.94
2023-03-22T02:39:04.089Z,1006.91
2023-03-22T02:40:04.084Z,1006.91
2023-03-22T02:41:04.100Z,1006.89
2023-03-22T02:42:04.086Z,1006.90
2023-03-22T02:43:04.086Z,1006.87
2023-03-22T02:44:04.080Z,1006.92
2023-03-22T02:45:04.076Z,1006.90
2023-03-22T02:46:04.084Z,1006.89
2023-03-22T02:47:04.070Z,1006.85
2023-03-22T02:48:04.125Z,1006.88
2023-03-22T02:49:04.073Z,1006.85
2023-03-22T02:50:04.065Z,1006.88
2023-03-22T02:51:04.065Z,1006.89
2023-03-22T02:52:04.083Z,1006.87
2023-03-22T02:53:04.083Z,1006.87
2023-03-22T02:54:04.064Z,1006.82
2023-03-22T02:55:04.090Z,1006.82
2023-03-22T02:56:04.059Z,1006.83
2023-03-22T02:57:04.061Z,1006.86
2023-03-22T02:58:04.065Z,1006.80
2023-03-22T02:59:04.072Z,1006.80
2023-03-22T03:00:04.048Z,1006.82
2023-03-22T03:01:04.106Z,1006.83
2023-03-22T03:02:04.127Z,1006.80
2023-03-22T03:03:04.055Z,1006.78
2023-03-22T03:04:04.045Z,1006.80
2023-03-22T03:05:04.044Z,1006.81
2023-03-22T03:06:04.044Z,1006.79
2023-03-22T03:07:04.036Z,1006.78
2023-03-22T03:08:04.062Z,1006.76
2023-03-22T03:09:04.039Z,1006.77
2023-03-22T03:10:04.036Z,1006.78
2023-03-22T03:11:04.054Z,1006.76
2023-03-22T03:12:04.025Z,1006.75
2023-03-22T03:13:04.034Z,1006.76
2023-03-22T03:14:04.035Z,1006.70
2023-03-22T03:15:04.087Z,1006.73
2023-03-22T03:16:04.054Z,1006.69
2023-03-22T03:17:04.023Z,1006.67
2023-03-22T03:18:04.022Z,1006.71
2023-03-22T03:19:04.040Z,1006.68
2023-03-22T03:20:04.021Z,1006.74
2023-03-22T03:21:04.030Z,1006.71
2023-03-22T03:22:04.015Z,1006.70
2023-03-22T03:23:04.013Z,1006.65
2023-03-22T03:24:04.122Z,1006.70
2023-03-22T03:25:04.012Z,1006.71
2023-03-22T03:26:04.005Z,1006.69
2023-03-22T03:27:04.065Z,1006.69
2023-03-22T03:28:03.999Z,1006.72
2023-03-22T03:29:04.018Z,1006.70
2023-03-22T03:30:04.003Z,1006.65
2023-03-22T03:31:04.003Z,1006.63
2023-03-22T03:32:04.004Z,1006.65
2023-03-22T03:33:03.996Z,1006.66
2023-03-22T03:36:47.730Z,1006.70
2023-03-22T03:37:47.707Z,1006.67
2023-03-22T03:38:47.715Z,1006.76
2023-03-22T03:39:47.731Z,1006.74
2023-03-22T03:40:47.707Z,1006.75
2023-03-22T03:41:47.700Z,1006.81
2023-03-22T03:42:47.702Z,1006.81
2023-03-22T03:43:47.702Z,1006.81
2023-03-22T03:44:47.695Z,1006.87
2023-03-22T03:45:47.709Z,1006.88
2023-03-22T03:46:47.707Z,1006.82
2023-03-22T03:47:47.719Z,1006.80
2023-03-22T03:48:47.710Z,1006.82
2023-03-22T03:49:47.691Z,1006.84
2023-03-22T03:50:47.688Z,1006.85
2023-03-22T03:51:47.700Z,1006.86
2023-03-22T03:52:47.682Z,1006.86
2023-03-22T03:53:47.704Z,1006.86
2023-03-22T03:54:47.695Z,1006.85
2023-03-22T03:55:47.718Z,1006.80
2023-03-22T03:56:47.723Z,1006.83
2023-03-22T03:57:47.672Z,1006.85
2023-03-22T03:58:47.674Z,1006.84
2023-03-22T03:59:47.670Z,1006.79
2023-03-22T04:00:47.671Z,1006.82
2023-03-22T04:01:47.666Z,1006.80
2023-03-22T04:02:47.667Z,1006.81
2023-03-22T04:03:47.659Z,1006.77
2023-03-22T04:04:47.812Z,1006.74
2023-03-22T04:05:47.657Z,1006.76
2023-03-22T04:06:47.661Z,1006.75
2023-03-22T04:07:47.651Z,1006.70
2023-03-22T04:08:47.662Z,1006.69
2023-03-22T04:09:47.650Z,1006.64
2023-03-22T04:10:47.650Z,1006.65
2023-03-22T04:11:47.729Z,1006.67
2023-03-22T04:12:47.648Z,1006.71
2023-03-22T04:13:47.642Z,1006.66
2023-03-22T04:14:47.647Z,1006.68
2023-03-22T04:15:47.638Z,1006.68
2023-03-22T04:16:47.681Z,1006.64
2023-03-22T04:17:47.632Z,1006.66
2023-03-22T04:18:47.638Z,1006.70
2023-03-22T04:19:47.629Z,1006.70
2023-03-22T04:20:47.632Z,1006.71
2023-03-22T04:21:47.627Z,1006.71
2023-03-22T04:22:47.630Z,1006.72
2023-03-22T04:23:47.621Z,1006.71
2023-03-22T04:24:47.629Z,1006.75
2023-03-22T04:25:47.616Z,1006.69
2023-03-22T04:26:47.618Z,1006.70
2023-03-22T04:27:47.634Z,1006.71
2023-03-22T04:28:47.614Z,1006.71
2023-03-22T04:29:47.608Z,1006.72
2023-03-22T04:30:47.623Z,1006.76
2023-03-22T04:31:47.636Z,1006.80
2023-03-22T04:32:47.618Z,1006.76
2023-03-22T04:33:47.605Z,1006.76
2023-03-22T04:34:47.610Z,1006.80
2023-03-22T04:35:47.645Z,1006.81
2023-03-22T04:36:47.596Z,1006.81
2023-03-22T04:37:47.593Z,1006.82
2023-03-22T04:38:47.594Z,1006.81
2023-03-22T04:39:47.587Z,1006.83
2023-03-22T04:40:47.592Z,1006.81
2023-03-22T04:41:47.586Z,1006.82
2023-03-22T04:42:47.592Z,1006.86
2023-03-22T04:43:47.598Z,1006.78
2023-03-22T04:44:47.581Z,1006.79
2023-03-22T04:45:47.577Z,1006.74
2023-03-22T04:46:47.668Z,1006.70
2023-03-22T04:47:47.679Z,1006.75
2023-03-22T04:48:47.577Z,1006.68
2023-03-22T04:49:47.578Z,1006.77
2023-03-22T04:50:47.571Z,1006.78
2023-03-22T04:51:47.564Z,1006.76
2023-03-22T04:52:47.564Z,1006.69
2023-03-22T04:53:47.557Z,1006.67
2023-03-22T04:54:47.565Z,1006.67
2023-03-22T04:55:47.558Z,1006.71
2023-03-22T04:56:47.558Z,1006.71
2023-03-22T04:57:47.563Z,1006.69
2023-03-22T04:58:47.556Z,1006.66
2023-03-22T04:59:47.570Z,1006.67
2023-03-22T05:00:47.547Z,1006.71
2023-03-22T05:01:47.571Z,1006.67
2023-03-22T05:02:47.570Z,1006.65
2023-03-22T05:03:47.711Z,1006.67
2023-03-22T05:04:47.545Z,1006.69
2023-03-22T05:05:47.538Z,1006.68
2023-03-22T05:06:47.557Z,1006.64
2023-03-22T05:07:47.530Z,1006.65
2023-03-22T05:08:47.535Z,1006.58
2023-03-22T05:09:47.524Z,1006.54
2023-03-22T05:10:47.530Z,1006.58
2023-03-22T05:11:47.520Z,1006.56
2023-03-22T05:12:47.526Z,1006.58
2023-03-22T05:13:47.518Z,1006.57
2023-03-22T05:14:47.591Z,1006.55
2023-03-22T05:15:47.578Z,1006.50
2023-03-22T05:16:47.516Z,1006.48
2023-03-22T05:17:47.513Z,1006.49
2023-03-22T05:18:47.516Z,1006.46
2023-03-22T05:19:47.505Z,1006.45
2023-03-22T05:20:47.511Z,1006.43
2023-03-22T05:21:47.509Z,1006.46
2023-03-22T05:22:47.502Z,1006.44
2023-03-22T05:23:49.193Z,1006.47
2023-03-22T05:24:47.497Z,1006.46
2023-03-22T05:25:47.493Z,1006.45
2023-03-22T05:26:47.499Z,1006.48
2023-03-22T05:27:47.493Z,1006.47
2023-03-22T05:28:47.492Z,1006.49
2023-03-22T05:29:47.488Z,1006.46
2023-03-22T05:30:47.484Z,1006.43
2023-03-22T05:31:47.580Z,1006.47
2023-03-22T05:32:47.506Z,1006.46
2023-03-22T05:33:47.484Z,1006.44
2023-03-22T05:34:47.487Z,1006.48
2023-03-22T05:35:47.538Z,1006.47
2023-03-22T05:36:47.478Z,1006.50
2023-03-22T05:37:47.480Z,1006.46
2023-03-22T05:38:47.475Z,1006.50
2023-03-22T05:39:47.468Z,1006.46
2023-03-22T05:40:47.473Z,1006.43
2023-03-22T05:41:47.481Z,1006.44
2023-03-22T05:42:47.480Z,1006.47
2023-03-22T05:43:47.473Z,1006.46
2023-03-22T05:44:47.472Z,1006.47
2023-03-22T05:45:47.455Z,1006.46
2023-03-22T05:46:47.523Z,1006.49
2023-03-22T05:47:47.488Z,1006.44
2023-03-22T05:48:47.459Z,1006.45
2023-03-22T05:49:47.452Z,1006.44
2023-03-22T05:50:47.459Z,1006.47
2023-03-22T05:51:47.444Z,1006.41
2023-03-22T05:52:47.445Z,1006.45
2023-03-22T05:53:47.444Z,1006.43
2023-03-22T05:54:47.445Z,1006.45
2023-03-22T05:55:47.448Z,1006.44
2023-03-22T05:56:47.446Z,1006.43
2023-03-22T05:57:47.447Z,1006.44
2023-03-22T05:58:47.438Z,1006.42
2023-03-22T05:59:47.431Z,1006.41
2023-03-22T06:00:47.443Z,1006.42
2023-03-22T06:01:47.500Z,1006.38
2023-03-22T06:02:47.506Z,1006.45
2023-03-22T06:03:47.442Z,1006.41
2023-03-22T06:04:47.427Z,1006.46
2023-03-22T06:05:47.440Z,1006.46
2023-03-22T06:06:47.420Z,1006.46
2023-03-22T06:07:47.430Z,1006.41
2023-03-22T06:08:47.423Z,1006.44
2023-03-22T06:09:47.425Z,1006.42
2023-03-22T06:10:47.413Z,1006.41
2023-03-22T06:11:47.424Z,1006.42
2023-03-22T06:12:47.425Z,1006.38
2023-03-22T06:13:47.410Z,1006.39
2023-03-22T06:14:47.407Z,1006.39
2023-03-22T06:15:47.403Z,1006.41
2023-03-22T06:16:47.453Z,1006.38
2023-03-22T06:17:47.410Z,1006.37
2023-03-22T06:18:47.399Z,1006.34
2023-03-22T06:19:47.417Z,1006.36
2023-03-22T06:20:47.404Z,1006.37
2023-03-22T06:21:47.388Z,1006.35
2023-03-22T06:22:47.390Z,1006.35
2023-03-22T06:23:47.391Z,1006.37
2023-03-22T06:24:47.388Z,1006.36
2023-03-22T06:25:47.380Z,1006.38
2023-03-22T06:26:47.385Z,1006.40
2023-03-22T06:27:47.379Z,1006.42
2023-03-22T06:28:47.393Z,1006.38
2023-03-22T06:29:47.378Z,1006.45
2023-03-22T06:30:47.428Z,1006.42
2023-03-22T06:31:47.375Z,1006.43
2023-03-22T06:32:47.366Z,1006.41
2023-03-22T06:33:47.371Z,1006.41
2023-03-22T06:34:47.359Z,1006.39
2023-03-22T06:35:47.448Z,1006.43
2023-03-22T06:36:47.354Z,1006.41
2023-03-22T06:37:47.352Z,1006.44
2023-03-22T06:38:47.351Z,1006.41
2023-03-22T06:39:47.349Z,1006.43
2023-03-22T06:40:47.353Z,1006.44
2023-03-22T06:41:47.354Z,1006.41
2023-03-22T06:42:47.351Z,1006.43
2023-03-22T06:43:47.336Z,1006.44
2023-03-22T06:44:47.339Z,1006.45
2023-03-22T06:45:47.357Z,1006.48
2023-03-22T06:46:47.332Z,1006.45
2023-03-22T06:47:47.353Z,1006.47
2023-03-22T06:48:47.356Z,1006.47
2023-03-22T06:49:47.326Z,1006.49
2023-03-22T06:50:47.325Z,1006.48
2023-03-22T06:51:47.347Z,1006.50
2023-03-22T06:52:47.331Z,1006.50
2023-03-22T06:53:47.330Z,1006.52
2023-03-22T06:54:47.316Z,1006.53
2023-03-22T06:55:47.325Z,1006.54
2023-03-22T06:56:47.348Z,1006.53
2023-03-22T06:57:47.310Z,1006.60
2023-03-22T06:58:47.311Z,1006.55
2023-03-22T06:59:47.306Z,1006.56
2023-03-22T07:00:47.310Z,1006.59
2023-03-22T07:01:47.377Z,1006.54
2023-03-22T07:02:47.308Z,1006.57
2023-03-22T07:03:47.302Z,1006.58
2023-03-22T07:04:47.343Z,1006.58
2023-03-22T07:05:47.300Z,1006.58
2023-03-22T07:06:47.305Z,1006.59
2023-03-22T07:07:47.314Z,1006.57
2023-03-22T07:08:47.293Z,1006.59
2023-03-22T07:09:47.289Z,1006.59
2023-03-22T07:10:47.295Z,1006.60
2023-03-22T07:11:47.291Z,1006.60
2023-03-22T07:12:47.294Z,1006.60
2023-03-22T07:13:47.285Z,1006.57
2023-03-22T07:14:47.300Z,1006.58
2023-03-22T07:15:47.308Z,1006.61
2023-03-22T07:16:47.284Z,1006.57
2023-03-22T07:17:47.285Z,1006.53
2023-03-22T07:18:47.279Z,1006.56
2023-03-22T07:19:47.300Z,1006.58
2023-03-22T07:20:47.285Z,1006.53
2023-03-22T07:21:47.272Z,1006.57
2023-03-22T07:22:47.293Z,1006.52
2023-03-22T07:23:47.295Z,1006.55
2023-03-22T07:24:57.002Z,1006.51
2023-03-22T07:25:47.266Z,1006.58
2023-03-22T07:26:47.267Z,1006.62
2023-03-22T07:27:47.268Z,1006.56
2023-03-22T07:28:47.263Z,1006.58
2023-03-22T07:29:47.263Z,1006.57
2023-03-22T07:30:47.257Z,1006.51
2023-03-22T07:31:47.316Z,1006.58
2023-03-22T07:32:47.271Z,1006.59
2023-03-22T07:33:47.260Z,1006.53
2023-03-22T07:34:47.256Z,1006.56
2023-03-22T07:35:47.273Z,1006.54
2023-03-22T07:36:47.252Z,1006.55
2023-03-22T07:37:47.250Z,1006.54
2023-03-22T07:38:47.250Z,1006.55
2023-03-22T07:39:47.274Z,1006.54
2023-03-22T07:40:47.247Z,1006.49
2023-03-22T07:41:47.244Z,1006.50
2023-03-22T07:42:47.242Z,1006.45
2023-03-22T07:43:55.252Z,1006.49
2023-03-22T07:44:47.395Z,1006.50
2023-03-22T07:45:47.244Z,1006.47
2023-03-22T07:46:47.312Z,1006.48
2023-03-22T07:47:47.287Z,1006.48
2023-03-22T07:48:47.238Z,1006.50
2023-03-22T07:49:47.235Z,1006.46
2023-03-22T07:50:47.238Z,1006.49
2023-03-22T07:51:47.252Z,1006.51
2023-03-22T07:52:47.237Z,1006.48
2023-03-22T07:53:47.240Z,1006.54
2023-03-22T07:54:47.226Z,1006.45
2023-03-22T07:55:47.254Z,1006.49
2023-03-22T07:56:47.232Z,1006.48
2023-03-22T07:57:47.229Z,1006.51
2023-03-22T07:58:47.270Z,1006.42
2023-03-22T07:59:47.295Z,1006.45
2023-03-22T08:00:47.225Z,1006.50
2023-03-22T08:01:47.259Z,1006.50
2023-03-22T08:02:47.265Z,1006.58
2023-03-22T08:03:47.232Z,1006.56
2023-03-22T08:04:49.621Z,1006.56
2023-03-22T08:05:47.218Z,1006.64
2023-03-22T08:06:47.211Z,1006.68
2023-03-22T08:07:47.218Z,1006.66
2023-03-22T08:08:47.209Z,1006.67
2023-03-22T08:09:47.217Z,1006.76
2023-03-22T08:10:47.211Z,1006.76
2023-03-22T08:11:47.252Z,1006.77
2023-03-22T08:12:47.223Z,1006.92
2023-03-22T08:13:47.208Z,1006.99
2023-03-22T08:14:47.201Z,1007.03
2023-03-22T08:15:47.196Z,1007.12
2023-03-22T08:16:47.282Z,1007.29
2023-03-22T08:17:47.203Z,1008.19
2023-03-22T08:18:47.208Z,1007.44
2023-03-22T08:19:47.195Z,1007.24
2023-03-22T08:20:47.202Z,1007.27
2023-03-22T08:21:47.198Z,1007.65
2023-03-22T08:22:47.200Z,1007.43
2023-03-22T08:23:48.816Z,1007.79
2023-03-22T08:24:47.193Z,1007.53
2023-03-22T08:25:47.204Z,1007.23
2023-03-22T08:26:47.189Z,1007.16
2023-03-22T08:27:47.212Z,1006.96
2023-03-22T08:28:47.199Z,1006.98
2023-03-22T08:29:47.194Z,1006.81
2023-03-22T08:30:47.195Z,1006.74
2023-03-22T08:31:47.285Z,1006.65
2023-03-22T08:32:47.189Z,1006.58
2023-03-22T08:33:47.197Z,1006.59
2023-03-22T08:34:47.196Z,1006.62
2023-03-22T08:35:47.318Z,1006.58
2023-03-22T08:36:47.202Z,1006.57
2023-03-22T08:37:47.193Z,1006.63
2023-03-22T08:38:47.187Z,1006.54
2023-03-22T08:39:47.195Z,1006.61
2023-03-22T08:40:47.185Z,1006.69
2023-03-22T08:41:47.192Z,1006.60
2023-03-22T08:42:47.191Z,1006.55
2023-03-22T08:43:47.207Z,1006.44
2023-03-22T08:44:47.187Z,1006.41
2023-03-22T08:45:47.193Z,1006.42
2023-03-22T08:46:47.221Z,1006.37
2023-03-22T08:47:47.264Z,1006.31
2023-03-22T08:48:47.180Z,1006.31
2023-03-22T08:49:47.187Z,1006.37
2023-03-22T08:50:47.183Z,1006.35
2023-03-22T08:51:47.200Z,1006.36
2023-03-22T08:52:47.181Z,1006.33
2023-03-22T08:53:47.184Z,1006.31
2023-03-22T08:54:47.184Z,1006.33
2023-03-22T08:55:47.191Z,1006.24
2023-03-22T08:56:47.176Z,1006.24
2023-03-22T08:57:47.183Z,1006.28
2023-03-22T08:58:47.187Z,1006.27
2023-03-22T08:59:47.200Z,1006.33
2023-03-22T09:00:49.500Z,1006.38
2023-03-22T09:01:47.511Z,1006.34
2023-03-22T09:02:47.178Z,1006.40
2023-03-22T09:03:47.178Z,1006.39
2023-03-22T09:04:47.230Z,1006.38
2023-03-22T09:05:47.179Z,1006.46
2023-03-22T09:06:47.171Z,1006.49
2023-03-22T09:07:47.181Z,1006.47
2023-03-22T09:08:47.174Z,1006.39
2023-03-22T09:09:47.179Z,1006.37
2023-03-22T09:10:47.179Z,1006.32
2023-03-22T09:11:47.185Z,1006.33
2023-03-22T09:12:47.179Z,1006.29
2023-03-22T09:13:47.176Z,1006.27
2023-03-22T09:14:47.170Z,1006.26
2023-03-22T09:15:47.293Z,1006.25
2023-03-22T09:16:47.169Z,1006.24
2023-03-22T09:17:47.175Z,1006.25
2023-03-22T09:18:47.215Z,1006.23
2023-03-22T09:19:47.181Z,1006.15
2023-03-22T09:20:47.172Z,1006.11
2023-03-22T09:21:47.177Z,1006.11
2023-03-22T09:22:47.167Z,1006.19
2023-03-22T09:23:47.172Z,1006.24
2023-03-22T09:24:47.171Z,1006.21
2023-03-22T09:25:47.178Z,1006.18
2023-03-22T09:26:47.208Z,1006.20
2023-03-22T09:27:47.171Z,1006.15
2023-03-22T09:28:47.296Z,1006.16
2023-03-22T09:29:47.172Z,1006.17
2023-03-22T09:30:47.270Z,1006.23
2023-03-22T09:31:47.195Z,1006.14
2023-03-22T09:32:47.169Z,1006.17
2023-03-22T09:33:47.207Z,1006.17
2023-03-22T09:34:47.168Z,1006.18
2023-03-22T09:35:47.199Z,1006.16
2023-03-22T09:36:47.171Z,1006.12
2023-03-22T09:37:47.177Z,1006.10
2023-03-22T09:38:47.169Z,1006.04
2023-03-22T09:39:47.173Z,1005.97
2023-03-22T09:40:47.176Z,1005.95
2023-03-22T09:41:47.180Z,1005.95
2023-03-22T09:42:47.172Z,1005.90
2023-03-22T09:43:47.175Z,1005.88
2023-03-22T09:44:47.175Z,1005.90
2023-03-22T09:45:47.180Z,1005.93
2023-03-22T09:46:47.181Z,1005.96
2023-03-22T09:47:47.299Z,1006.01
2023-03-22T09:48:48.406Z,1006.02
2023-03-22T09:49:53.300Z,1006.03
2023-03-22T09:50:47.170Z,1006.05
2023-03-22T09:51:47.180Z,1006.00
2023-03-22T09:52:47.173Z,1006.04
2023-03-22T09:53:47.182Z,1005.99
2023-03-22T09:54:47.180Z,1005.98
2023-03-22T09:55:47.181Z,1005.94
2023-03-22T09:56:47.187Z,1005.89
2023-03-22T09:57:47.177Z,1005.90
2023-03-22T09:58:47.248Z,1005.90
2023-03-22T09:59:47.179Z,1005.91
2023-03-22T10:00:47.289Z,1005.92
2023-03-22T10:01:47.494Z,1005.89
2023-03-22T10:02:47.281Z,1005.87
2023-03-22T10:03:47.234Z,1005.82
2023-03-22T10:04:47.194Z,1005.82
2023-03-22T10:05:47.184Z,1005.85
2023-03-22T10:06:47.186Z,1005.76
2023-03-22T10:07:47.185Z,1005.72
2023-03-22T10:08:47.188Z,1005.72
2023-03-22T10:09:47.185Z,1005.72
2023-03-22T10:10:47.181Z,1005.66
2023-03-22T10:11:47.201Z,1005.69
2023-03-22T10:12:47.193Z,1005.75
2023-03-22T10:13:47.187Z,1005.75
2023-03-22T10:14:47.186Z,1005.77
2023-03-22T10:15:47.301Z,1005.79
2023-03-22T10:16:47.188Z,1005.80
2023-03-22T10:17:47.187Z,1005.86
2023-03-22T10:18:47.264Z,1005.90
2023-03-22T10:19:47.221Z,1005.85
2023-03-22T10:20:47.187Z,1005.90
2023-03-22T10:21:47.200Z,1005.80
2023-03-22T10:22:47.188Z,1005.75
2023-03-22T10:23:47.207Z,1005.76
2023-03-22T10:24:47.191Z,1005.67
2023-03-22T10:25:47.194Z,1005.72
2023-03-22T10:26:47.197Z,1005.68
2023-03-22T10:27:47.201Z,1005.65
2023-03-22T10:28:47.193Z,1005.65
2023-03-22T10:29:47.209Z,1005.59
2023-03-22T10:30:47.190Z,1005.61
2023-03-22T10:31:47.251Z,1005.65
2023-03-22T10:32:57.120Z,1005.56
2023-03-22T10:33:47.200Z,1005.53
2023-03-22T10:34:47.197Z,1005.51
2023-03-22T10:35:47.259Z,1005.42
2023-03-22T10:36:47.204Z,1005.47
2023-03-22T10:37:47.213Z,1005.44
2023-03-22T10:38:47.208Z,1005.41
2023-03-22T10:39:47.207Z,1005.41
2023-03-22T10:40:47.204Z,1005.43
2023-03-22T10:41:47.212Z,1005.40
2023-03-22T10:42:47.203Z,1005.38
2023-03-22T10:43:47.208Z,1005.38
2023-03-22T10:44:47.208Z,1005.35
2023-03-22T10:45:47.210Z,1005.37
2023-03-22T10:46:47.304Z,1005.33
2023-03-22T10:47:47.245Z,1005.35
2023-03-22T10:48:47.210Z,1005.36
2023-03-22T10:49:47.215Z,1005.41
2023-03-22T10:50:47.211Z,1005.44
2023-03-22T10:51:47.244Z,1005.37
2023-03-22T10:52:47.218Z,1005.36
2023-03-22T10:53:47.221Z,1005.31
2023-03-22T10:54:47.240Z,1005.29
2023-03-22T10:55:47.232Z,1005.26
2023-03-22T10:56:47.219Z,1005.25
2023-03-22T10:57:47.232Z,1005.21
2023-03-22T10:58:47.223Z,1005.23
2023-03-22T10:59:47.226Z,1005.22
2023-03-22T11:00:47.499Z,1005.16
2023-03-22T11:01:47.462Z,1005.17
2023-03-22T11:02:47.350Z,1005.20
2023-03-22T11:03:47.238Z,1005.19
2023-03-22T11:04:47.236Z,1005.08
2023-03-22T11:05:47.243Z,1005.14
2023-03-22T11:06:47.229Z,1005.08
2023-03-22T11:07:47.260Z,1005.12
2023-03-22T11:08:47.234Z,1005.15
2023-03-22T11:09:47.235Z,1005.05
2023-03-22T11:10:47.269Z,1005.01
2023-03-22T11:11:47.258Z,1005.06
2023-03-22T11:12:47.237Z,1004.97
2023-03-22T11:13:47.246Z,1005.09
2023-03-22T11:14:47.239Z,1005.02
2023-03-22T11:15:47.243Z,1005.04
2023-03-22T11:16:47.287Z,1005.08
2023-03-22T11:17:47.243Z,1004.98
2023-03-22T11:18:47.257Z,1005.00
2023-03-22T11:19:47.246Z,1005.05
2023-03-22T11:20:47.288Z,1004.97
2023-03-22T11:21:47.247Z,1005.04
2023-03-22T11:22:47.240Z,1004.94
2023-03-22T11:23:47.275Z,1004.96
2023-03-22T11:24:47.248Z,1004.91
2023-03-22T11:25:47.246Z,1004.93
2023-03-22T11:26:47.243Z,1004.95
2023-03-22T11:27:47.246Z,1004.99
2023-03-22T11:28:47.259Z,1004.88
2023-03-22T11:29:47.264Z,1004.84
2023-03-22T11:30:47.248Z,1004.94
2023-03-22T11:31:47.362Z,1004.88
2023-03-22T11:32:47.379Z,1004.89
2023-03-22T11:33:47.256Z,1004.84
2023-03-22T11:34:47.258Z,1004.85
2023-03-22T11:35:47.376Z,1004.84
2023-03-22T11:37:47.266Z,1004.77
2023-03-22T11:38:48.658Z,1004.78
2023-03-22T11:39:47.279Z,1004.82
2023-03-22T11:40:47.255Z,1004.77
2023-03-22T11:41:47.261Z,1004.80
2023-03-22T11:42:47.260Z,1004.74
2023-03-22T11:43:47.264Z,1004.73
2023-03-22T11:44:47.258Z,1004.75
2023-03-22T11:45:47.340Z,1004.80
2023-03-22T11:46:47.261Z,1004.85
2023-03-22T11:47:47.368Z,1004.90
2023-03-22T11:48:47.420Z,1004.71
2023-03-22T11:49:47.308Z,1004.67
2023-03-22T11:50:47.265Z,1004.68
2023-03-22T11:51:47.267Z,1004.69
2023-03-22T11:52:47.267Z,1004.84
2023-03-22T11:53:47.268Z,1004.78
2023-03-22T11:54:47.279Z,1004.81
2023-03-22T11:55:47.290Z,1004.70
2023-03-22T11:56:47.267Z,1004.71
2023-03-22T11:57:47.274Z,1004.76
2023-03-22T11:58:47.287Z,1004.71
2023-03-22T11:59:47.283Z,1004.75
2023-03-22T12:00:47.268Z,1004.78
2023-03-22T12:01:47.274Z,1004.78
2023-03-22T12:02:47.448Z,1004.79
2023-03-22T12:03:47.429Z,1004.74
2023-03-22T12:04:47.345Z,1004.69
2023-03-22T12:05:47.315Z,1004.71
2023-03-22T12:06:47.271Z,1004.75
2023-03-22T12:07:47.280Z,1004.65
2023-03-22T12:08:47.346Z,1004.65